weather.gov     
National Weather Service

Terminal Aerodrome Forecast
NWS Homepage
This page is being discontinued on March 12, 2014.
The same data is available at this site. Please update your bookmarks.
Thank you, and we apologize for the inconvenience.
Please send an email to SR-SRH.Webmaster@noaa.gov with any concerns.


Current Version
Previous Version:    01  02  03  04  05  06  07  08  09  10  11  12  13  14  15  16  17  18  19  20  21  22  23  24  25  26  27  28  29  30  
   31  32  33  34  35  
[Printable]
635
FTUS43 KGID 182336
TAFGRI
TAF
KGRI 182336Z 1900/1924 18020G30KT P6SM BKN150
     FM190400 17016G22KT P6SM BKN150 WS010/20050KT
     FM191400 20015G20KT P6SM FEW050 BKN120
     FM192200 VRB06KT P6SM VCTS SCT050CB BKN100=


635
FTUS43 KGID 182336
TAFGRI
TAF
KGRI 182336Z 1900/1924 18020G30KT P6SM BKN150
     FM190400 17016G22KT P6SM BKN150 WS010/20050KT
     FM191400 20015G20KT P6SM FEW050 BKN120
     FM192200 VRB06KT P6SM VCTS SCT050CB BKN100=




U.S. Dept. of Commerce
NOAA National Weather Service
1325 East West Highway
Silver Spring, MD 20910
E-mail: w-nws.webmaster@noaa.gov
Page last modified: May 16, 2007
NATIONAL WEATHER SERVICE: for Safety, for Work, for Fun - FOR LIFE